Cloncurry, Australia
Current Conditions -  °F | °C
As of 3:00 PM on Thursday 27 Nov 2014 (Local Time) from YBMA Reporting Station
Rain Showers Rain Showers  
Wind Chill: 100°   Ceiling: 14000
Heat Index: 100°   Visibility: 6mi
Dew Point: 57°   Wind: 15mph
Humidity: 24%   Direction: 50°NE
Pressure: 29.77"   Gusts: NA
Location:  20.7°S, 140.51°E
Report Text: YBMA 270500Z 05013KT 9999 VCSH SCT090 BKN140 38/14 Q1008
Loading
Personal Weather Stations






























Interactive Weather Map New forecast layout! Learn more

10-Day Weather Forecast

Advertisements
Track Severe Weather on mobile